createdAt,value
2023-06-10T00:00:45.135Z,24
2023-06-10T00:03:15.869Z,24
2023-06-10T00:05:46.536Z,24
2023-06-10T00:08:17.076Z,28
2023-06-10T00:10:47.546Z,32
2023-06-10T00:13:18.187Z,29
2023-06-10T00:15:48.827Z,36
2023-06-10T00:18:19.652Z,36
2023-06-10T00:20:50.558Z,34
2023-06-10T00:23:21.650Z,28
2023-06-10T00:25:52.216Z,32
2023-06-10T00:28:23.082Z,28
2023-06-10T00:30:54.238Z,28
2023-06-10T00:33:24.840Z,28
2023-06-10T00:35:53.998Z,28
2023-06-10T00:38:24.705Z,28
2023-06-10T00:40:55.447Z,26
2023-06-10T00:43:26.169Z,26
2023-06-10T00:45:57.947Z,24
2023-06-10T00:48:28.329Z,24
2023-06-10T00:51:02.428Z,24
2023-06-10T00:53:33.463Z,24
2023-06-10T00:56:03.881Z,24
2023-06-10T00:58:35.023Z,24
2023-06-10T01:01:05.934Z,24
2023-06-10T01:03:36.875Z,24
2023-06-10T01:06:07.625Z,24
2023-06-10T01:08:38.360Z,24
2023-06-10T01:11:08.839Z,26
2023-06-10T01:13:39.054Z,24
2023-06-10T01:16:10.293Z,24
2023-06-10T01:18:41.006Z,24
2023-06-10T01:21:11.988Z,28
2023-06-10T01:23:42.725Z,28
2023-06-10T01:26:13.450Z,24
2023-06-10T01:28:44.662Z,24
2023-06-10T01:31:15.504Z,24
2023-06-10T01:33:46.232Z,24
2023-06-10T01:36:16.696Z,24
2023-06-10T01:38:47.363Z,24
2023-06-10T01:41:18.170Z,24
2023-06-10T01:43:48.714Z,24
2023-06-10T01:46:19.734Z,24
2023-06-10T01:48:50.373Z,28
2023-06-10T01:51:21.703Z,28
2023-06-10T01:53:52.516Z,24
2023-06-10T01:56:23.183Z,25
2023-06-10T01:58:54.236Z,27
2023-06-10T02:01:24.991Z,24
2023-06-10T02:03:55.634Z,25
2023-06-10T02:06:26.051Z,24
2023-06-10T02:08:56.317Z,24
2023-06-10T02:11:27.217Z,24
2023-06-10T02:13:57.478Z,24
2023-06-10T02:16:28.129Z,24
2023-06-10T02:18:58.683Z,24
2023-06-10T02:21:29.705Z,28
2023-06-10T02:24:00.997Z,25
2023-06-10T02:26:31.855Z,24
2023-06-10T02:29:02.538Z,28
2023-06-10T02:31:33.852Z,28
2023-06-10T02:34:04.790Z,28
2023-06-10T02:36:35.203Z,24
2023-06-10T02:39:06.151Z,28
2023-06-10T02:41:36.855Z,24
2023-06-10T02:44:07.704Z,24
2023-06-10T02:46:38.730Z,24
2023-06-10T02:49:09.587Z,25
2023-06-10T02:51:40.267Z,26
2023-06-10T02:54:11.280Z,25
2023-06-10T02:56:41.670Z,28
2023-06-10T02:59:12.593Z,28
2023-06-10T03:01:43.412Z,28
2023-06-10T03:04:14.931Z,28
2023-06-10T03:06:45.906Z,28
2023-06-10T03:09:16.954Z,28
2023-06-10T03:11:47.413Z,25
2023-06-10T03:14:18.432Z,28
2023-06-10T03:16:49.847Z,26
2023-06-10T03:19:20.985Z,27
2023-06-10T03:21:52.110Z,28
2023-06-10T03:24:23.414Z,28
2023-06-10T03:26:54.326Z,28
2023-06-10T03:29:25.135Z,27
2023-06-10T03:31:55.708Z,27
2023-06-10T03:34:26.312Z,28
2023-06-10T03:36:57.346Z,28
2023-06-10T03:39:28.263Z,24
2023-06-10T03:41:59.043Z,28
2023-06-10T03:44:29.876Z,28
2023-06-10T03:47:00.578Z,28
2023-06-10T03:49:31.462Z,28
2023-06-10T03:52:01.751Z,28
2023-06-10T03:54:33.126Z,28
2023-06-10T03:57:04.016Z,28
2023-06-10T03:59:34.702Z,28
2023-06-10T04:02:06.585Z,28
2023-06-10T04:04:37.703Z,26
2023-06-10T04:07:08.341Z,24
2023-06-10T04:09:39.361Z,24
2023-06-10T04:12:10.226Z,28
2023-06-10T04:14:40.713Z,28
2023-06-10T04:17:11.668Z,28
2023-06-10T04:19:43.018Z,28
2023-06-10T04:22:13.559Z,28
2023-06-10T04:24:44.223Z,28
2023-06-10T04:27:15.007Z,32
2023-06-10T04:29:45.705Z,28
2023-06-10T04:32:16.512Z,28
2023-06-10T04:34:47.329Z,28
2023-06-10T04:37:16.514Z,28
2023-06-10T04:39:46.904Z,32
2023-06-10T04:42:17.751Z,28
2023-06-10T04:44:48.658Z,28
2023-06-10T04:47:19.812Z,28
2023-06-10T04:49:56.850Z,28
2023-06-10T04:52:29.544Z,28
2023-06-10T04:55:06.766Z,28
2023-06-10T04:57:37.204Z,28
2023-06-10T05:00:07.996Z,28
2023-06-10T05:02:38.476Z,28
2023-06-10T05:05:09.419Z,28
2023-06-10T05:07:40.194Z,28
2023-06-10T05:10:11.744Z,29
2023-06-10T05:12:42.634Z,24
2023-06-10T05:15:13.562Z,28
2023-06-10T05:17:45.127Z,32
2023-06-10T05:20:16.506Z,32
2023-06-10T05:22:46.993Z,29
2023-06-10T05:25:17.593Z,28
2023-06-10T05:27:58.645Z,40
2023-06-10T05:30:38.085Z,20
2023-06-10T05:33:09.904Z,28
2023-06-10T05:35:41.750Z,16
2023-06-10T05:38:14.295Z,16
2023-06-10T05:40:45.523Z,20
2023-06-10T05:43:16.499Z,16
2023-06-10T05:45:47.420Z,18
2023-06-10T05:48:18.435Z,20
2023-06-10T05:53:29.477Z,27
2023-06-10T05:55:59.643Z,20
2023-06-10T05:58:31.549Z,16
2023-06-10T06:01:02.598Z,16
2023-06-10T06:03:37.790Z,12
2023-06-10T06:06:08.852Z,12
2023-06-10T06:08:39.770Z,12
2023-06-10T06:11:10.813Z,16
2023-06-10T06:13:42.600Z,16
2023-06-10T06:16:23.828Z,20
2023-06-10T06:19:01.971Z,20
2023-06-10T06:21:35.905Z,17
2023-06-10T06:24:07.844Z,16
2023-06-10T06:26:38.644Z,16
2023-06-10T06:29:13.037Z,16
2023-06-10T06:31:44.537Z,28
2023-06-10T06:34:17.645Z,28
2023-06-10T06:36:49.473Z,24
2023-06-10T06:39:20.125Z,20
2023-06-10T06:41:50.682Z,20
2023-06-10T06:44:21.477Z,20
2023-06-10T06:46:53.666Z,16
2023-06-10T06:49:24.071Z,16
2023-06-10T06:51:54.536Z,16
2023-06-10T06:54:26.181Z,16
2023-06-10T06:56:55.364Z,14
2023-06-10T06:59:26.395Z,12
2023-06-10T07:01:56.877Z,12
2023-06-10T07:04:27.449Z,12
2023-06-10T07:06:58.114Z,11
2023-06-10T07:09:28.818Z,12
2023-06-10T07:11:59.554Z,12
2023-06-10T07:14:29.916Z,12
2023-06-10T07:17:01.047Z,12
2023-06-10T07:19:31.825Z,12
2023-06-10T07:22:02.595Z,12
2023-06-10T07:24:34.830Z,12
2023-06-10T07:27:05.533Z,27
2023-06-10T07:29:36.167Z,21
2023-06-10T07:32:06.544Z,16
2023-06-10T07:34:37.305Z,8
2023-06-10T07:37:08.120Z,12
2023-06-10T07:39:40.048Z,9
2023-06-10T07:42:10.510Z,12
2023-06-10T07:44:41.812Z,12
2023-06-10T07:47:12.775Z,12
2023-06-10T07:49:43.658Z,12
2023-06-10T07:52:12.650Z,12
2023-06-10T07:54:43.162Z,8
2023-06-10T07:57:14.186Z,12
2023-06-10T08:02:16.597Z,8
2023-06-10T08:04:53.837Z,8
2023-06-10T08:07:26.599Z,8
2023-06-10T08:10:02.279Z,8
2023-06-10T08:12:35.019Z,8
2023-06-10T08:15:09.218Z,12
2023-06-10T08:17:42.282Z,8
2023-06-10T08:20:12.874Z,12
2023-06-10T08:22:43.953Z,12
2023-06-10T08:25:14.486Z,12
2023-06-10T08:27:44.824Z,16
2023-06-10T08:30:15.474Z,20
2023-06-10T08:32:46.609Z,12
2023-06-10T08:35:17.268Z,20
2023-06-10T08:37:48.105Z,16
2023-06-10T08:40:19.904Z,16
2023-06-10T08:42:50.344Z,13
2023-06-10T08:45:21.115Z,12
2023-06-10T08:47:51.542Z,12
2023-06-10T08:50:20.467Z,15
2023-06-10T08:52:51.526Z,12
2023-06-10T08:55:25.730Z,20
2023-06-10T08:57:59.516Z,16
2023-06-10T09:03:09.045Z,16
2023-06-10T09:05:44.143Z,46
2023-06-10T09:08:17.957Z,16
2023-06-10T09:10:47.920Z,12
2023-06-10T09:13:21.705Z,12
2023-06-10T09:15:55.556Z,16
2023-06-10T09:18:32.704Z,20
2023-06-10T09:21:16.347Z,16
2023-06-10T09:23:48.391Z,9
2023-06-10T09:26:23.932Z,12
2023-06-10T09:28:55.365Z,12
2023-06-10T09:31:26.207Z,12
2023-06-10T09:34:01.789Z,12
2023-06-10T09:36:45.859Z,12
2023-06-10T09:39:18.586Z,12
2023-06-10T09:41:51.638Z,12
2023-06-10T09:47:17.901Z,9
2023-06-10T09:49:48.438Z,12
2023-06-10T09:52:20.309Z,12
2023-06-10T09:55:01.889Z,12
2023-06-10T09:57:38.227Z,12
2023-06-10T10:00:10.163Z,12
2023-06-10T10:02:40.626Z,11
2023-06-10T10:05:11.532Z,8
2023-06-10T10:07:43.753Z,8
2023-06-10T10:10:12.669Z,8
2023-06-10T10:12:43.448Z,8
2023-06-10T10:15:14.274Z,8
2023-06-10T10:17:46.081Z,8
2023-06-10T10:20:17.626Z,4
2023-06-10T10:22:48.537Z,8
2023-06-10T10:25:19.582Z,8
2023-06-10T10:27:52.595Z,8
2023-06-10T10:30:22.842Z,8
2023-06-10T10:32:53.876Z,8
2023-06-10T10:35:24.761Z,5
2023-06-10T10:37:58.984Z,9
2023-06-10T10:40:30.777Z,8
2023-06-10T10:43:01.584Z,4
2023-06-10T10:45:32.288Z,4
2023-06-10T10:48:03.065Z,5
2023-06-10T10:50:33.001Z,4
2023-06-10T10:53:13.971Z,4
2023-06-10T10:55:45.002Z,8
2023-06-10T10:58:13.737Z,8
2023-06-10T11:00:51.661Z,8
2023-06-10T11:03:22.358Z,4
2023-06-10T11:05:51.434Z,6
2023-06-10T11:08:22.332Z,6
2023-06-10T11:10:53.226Z,4
2023-06-10T11:13:23.690Z,4
2023-06-10T11:15:55.457Z,8
2023-06-10T11:18:26.785Z,8
2023-06-10T11:20:58.367Z,6
2023-06-10T11:23:28.993Z,4
2023-06-10T11:26:00.528Z,8
2023-06-10T11:28:31.496Z,4
2023-06-10T11:31:02.129Z,10
2023-06-10T11:33:32.814Z,8
2023-06-10T11:36:03.548Z,4
2023-06-10T11:38:34.470Z,8
2023-06-10T11:41:05.506Z,4
2023-06-10T11:43:42.247Z,4
2023-06-10T11:46:12.604Z,5
2023-06-10T11:48:43.066Z,8
2023-06-10T11:51:13.943Z,8
2023-06-10T11:53:44.489Z,8
2023-06-10T11:56:15.262Z,8
2023-06-10T11:58:46.810Z,8
2023-06-10T12:01:27.640Z,4
2023-06-10T12:03:48.024Z,8
2023-06-10T12:06:18.309Z,5
2023-06-10T12:08:48.904Z,7
2023-06-10T12:11:18.206Z,10
2023-06-10T12:13:48.572Z,8
2023-06-10T12:16:19.433Z,8
2023-06-10T12:18:49.864Z,20
2023-06-10T12:21:19.066Z,12
2023-06-10T12:23:49.451Z,12
2023-06-10T12:26:20.361Z,8
2023-06-10T12:28:51.122Z,16
2023-06-10T12:31:21.955Z,12
2023-06-10T12:33:52.726Z,8
2023-06-10T12:36:23.676Z,12
2023-06-10T12:38:54.924Z,13
2023-06-10T12:41:25.616Z,8
2023-06-10T12:43:56.148Z,9
2023-06-10T12:46:26.519Z,16
2023-06-10T12:48:58.110Z,16
2023-06-10T12:51:27.092Z,8
2023-06-10T12:53:57.584Z,12
2023-06-10T12:56:28.970Z,12
2023-06-10T12:58:59.585Z,8
2023-06-10T13:01:30.172Z,8
2023-06-10T13:04:00.781Z,9
2023-06-10T13:06:30.742Z,8
2023-06-10T13:09:01.632Z,16
2023-06-10T13:11:32.240Z,12
2023-06-10T13:14:01.811Z,12
2023-06-10T13:16:33.511Z,12
2023-06-10T13:19:04.627Z,12
2023-06-10T13:21:33.534Z,12
2023-06-10T13:24:05.862Z,8
2023-06-10T13:26:37.247Z,5
2023-06-10T13:29:05.992Z,8
2023-06-10T13:31:36.919Z,8
2023-06-10T13:34:07.790Z,16
2023-06-10T13:36:39.349Z,13
2023-06-10T13:39:09.260Z,4
2023-06-10T13:41:40.604Z,12
2023-06-10T13:44:11.119Z,8
2023-06-10T13:46:41.687Z,7
2023-06-10T13:49:10.831Z,5
2023-06-10T13:51:41.156Z,4
2023-06-10T13:54:11.708Z,8
2023-06-10T13:56:42.209Z,4
2023-06-10T13:59:12.651Z,4
2023-06-10T14:01:43.377Z,8
2023-06-10T14:04:14.231Z,4
2023-06-10T14:06:44.772Z,7
2023-06-10T14:09:15.650Z,4
2023-06-10T14:11:46.584Z,4
2023-06-10T14:14:16.966Z,4
2023-06-10T14:16:51.678Z,4
2023-06-10T14:19:23.103Z,3
2023-06-10T14:21:59.049Z,4
2023-06-10T14:24:29.581Z,4
2023-06-10T14:27:00.784Z,4
2023-06-10T14:29:31.304Z,4
2023-06-10T14:32:02.125Z,4
2023-06-10T14:34:33.160Z,8
2023-06-10T14:37:03.641Z,4
2023-06-10T14:39:34.073Z,4
2023-06-10T14:42:04.810Z,8
2023-06-10T14:44:40.518Z,6
2023-06-10T14:47:14.416Z,4
2023-06-10T14:49:43.451Z,4
2023-06-10T14:52:13.982Z,4
2023-06-10T14:54:44.407Z,8
2023-06-10T14:57:16.066Z,8
2023-06-10T14:59:46.487Z,7
2023-06-10T15:02:17.437Z,8
2023-06-10T15:04:46.006Z,7
2023-06-10T15:07:16.186Z,8
2023-06-10T15:09:46.803Z,4
2023-06-10T15:12:17.210Z,4
2023-06-10T15:14:50.588Z,4
2023-06-10T15:17:21.362Z,8
2023-06-10T15:19:54.197Z,5
2023-06-10T15:22:26.496Z,5
2023-06-10T15:24:57.775Z,4
2023-06-10T15:27:29.756Z,8
2023-06-10T15:30:00.403Z,8
2023-06-10T15:32:30.810Z,8
2023-06-10T15:35:02.897Z,8
2023-06-10T15:37:32.542Z,4
2023-06-10T15:40:04.229Z,4
2023-06-10T15:42:41.428Z,4
2023-06-10T15:45:14.772Z,8
2023-06-10T15:47:44.051Z,8
2023-06-10T15:50:14.521Z,16
2023-06-10T15:52:49.899Z,4
2023-06-10T15:55:25.454Z,12
2023-06-10T15:57:57.900Z,4
2023-06-10T16:00:28.339Z,8
2023-06-10T16:03:05.990Z,8
2023-06-10T16:05:36.347Z,8
2023-06-10T16:08:07.557Z,4
2023-06-10T16:10:37.578Z,12
2023-06-10T16:13:08.164Z,4
2023-06-10T16:15:38.693Z,16
2023-06-10T16:18:10.131Z,20
2023-06-10T16:20:40.556Z,12
2023-06-10T16:23:09.602Z,12
2023-06-10T16:25:40.543Z,12
2023-06-10T16:28:10.714Z,12
2023-06-10T16:30:41.057Z,12
2023-06-10T16:33:11.707Z,8
2023-06-10T16:35:42.089Z,11
2023-06-10T16:38:13.060Z,12
2023-06-10T16:40:43.849Z,12
2023-06-10T16:43:14.733Z,12
2023-06-10T16:45:45.495Z,12
2023-06-10T16:48:15.898Z,11
2023-06-10T16:50:46.482Z,16
2023-06-10T16:53:16.954Z,12
2023-06-10T16:55:47.618Z,12
2023-06-10T16:58:18.620Z,12
2023-06-10T17:00:48.881Z,20
2023-06-10T17:03:19.710Z,12
2023-06-10T17:05:50.320Z,16
2023-06-10T17:08:20.871Z,12
2023-06-10T17:10:51.072Z,12
2023-06-10T17:13:21.650Z,12
2023-06-10T17:15:52.165Z,16
2023-06-10T17:18:23.086Z,12
2023-06-10T17:20:53.793Z,20
2023-06-10T17:23:24.362Z,16
2023-06-10T17:25:53.549Z,16
2023-06-10T17:28:22.959Z,16
2023-06-10T17:30:53.744Z,12
2023-06-10T17:33:24.174Z,11
2023-06-10T17:35:54.610Z,12
2023-06-10T17:38:25.668Z,12
2023-06-10T17:40:56.599Z,8
2023-06-10T17:43:27.253Z,8
2023-06-10T17:45:58.072Z,8
2023-06-10T17:48:28.485Z,12
2023-06-10T17:50:59.169Z,12
2023-06-10T17:53:29.784Z,7
2023-06-10T17:56:02.145Z,8
2023-06-10T17:58:30.823Z,8
2023-06-10T18:01:01.025Z,7
2023-06-10T18:03:33.446Z,12
2023-06-10T18:06:03.807Z,8
2023-06-10T18:08:32.807Z,8
2023-06-10T18:11:01.805Z,8
2023-06-10T18:13:31.033Z,8
2023-06-10T18:15:59.844Z,8
2023-06-10T18:18:30.063Z,9
2023-06-10T18:21:02.895Z,8
2023-06-10T18:23:31.603Z,8
2023-06-10T18:26:00.722Z,8
2023-06-10T18:28:32.179Z,8
2023-06-10T18:31:02.678Z,8
2023-06-10T18:33:31.675Z,9
2023-06-10T18:36:02.494Z,8
2023-06-10T18:38:33.756Z,8
2023-06-10T18:41:04.422Z,12
2023-06-10T18:43:35.103Z,12
2023-06-10T18:46:05.584Z,12
2023-06-10T18:48:36.912Z,16
2023-06-10T18:51:07.383Z,12
2023-06-10T18:53:37.646Z,12
2023-06-10T18:56:08.008Z,12
2023-06-10T18:58:38.759Z,13
2023-06-10T19:01:09.432Z,16
2023-06-10T19:03:39.799Z,16
2023-06-10T19:06:10.096Z,17
2023-06-10T19:08:42.102Z,18
2023-06-10T19:11:12.255Z,20
2023-06-10T19:13:42.605Z,20
2023-06-10T19:16:12.915Z,20
2023-06-10T19:18:43.560Z,24
2023-06-10T19:21:14.257Z,20
2023-06-10T19:23:45.889Z,20
2023-06-10T19:26:18.020Z,24
2023-06-10T19:28:49.452Z,24
2023-06-10T19:31:20.041Z,20
2023-06-10T19:33:51.936Z,20
2023-06-10T19:36:22.978Z,24
2023-06-10T19:38:53.669Z,20
2023-06-10T19:41:25.134Z,24
2023-06-10T19:43:55.884Z,20
2023-06-10T19:46:26.720Z,20
2023-06-10T19:48:57.257Z,28
2023-06-10T19:51:27.955Z,25
2023-06-10T19:53:58.627Z,20
2023-06-10T19:56:29.987Z,20
2023-06-10T19:59:01.263Z,20
2023-06-10T20:01:31.932Z,24
2023-06-10T20:04:03.008Z,20
2023-06-10T20:06:30.666Z,20
2023-06-10T20:09:01.219Z,24
2023-06-10T20:11:31.630Z,24
2023-06-10T20:14:02.273Z,20
2023-06-10T20:16:32.816Z,24
2023-06-10T20:19:03.525Z,23
2023-06-10T20:21:34.046Z,20
2023-06-10T20:24:04.784Z,23
2023-06-10T20:26:35.353Z,20
2023-06-10T20:29:09.824Z,20
2023-06-10T20:31:42.664Z,16
2023-06-10T20:34:13.065Z,20
2023-06-10T20:36:44.508Z,24
2023-06-10T20:39:15.337Z,18
2023-06-10T20:41:45.931Z,20
2023-06-10T20:44:14.732Z,20
2023-06-10T20:46:50.101Z,20
2023-06-10T20:49:20.568Z,20
2023-06-10T20:51:51.576Z,28
2023-06-10T20:54:26.934Z,28
2023-06-10T20:56:59.185Z,26
2023-06-10T20:59:29.511Z,28
2023-06-10T21:02:00.248Z,24
2023-06-10T21:04:31.191Z,20
2023-06-10T21:07:01.616Z,19
2023-06-10T21:09:32.475Z,20
2023-06-10T21:12:03.099Z,20
2023-06-10T21:14:32.032Z,20
2023-06-10T21:17:04.397Z,23
2023-06-10T21:19:35.320Z,23
2023-06-10T21:22:06.110Z,20
2023-06-10T21:24:40.452Z,20
2023-06-10T21:27:11.061Z,20
2023-06-10T21:29:40.155Z,20
2023-06-10T21:32:10.616Z,20
2023-06-10T21:34:41.201Z,20
2023-06-10T21:37:10.927Z,20
2023-06-10T21:39:41.140Z,20
2023-06-10T21:42:11.987Z,23
2023-06-10T21:44:41.106Z,24
2023-06-10T21:47:11.742Z,32
2023-06-10T21:49:42.755Z,24
2023-06-10T21:52:11.871Z,23
2023-06-10T21:54:42.750Z,20
2023-06-10T21:57:13.213Z,20
2023-06-10T21:59:44.388Z,24
2023-06-10T22:02:15.071Z,20
2023-06-10T22:04:45.945Z,24
2023-06-10T22:07:16.643Z,25
2023-06-10T22:09:47.266Z,31
2023-06-10T22:12:19.145Z,24
2023-06-10T22:14:49.859Z,24
2023-06-10T22:17:21.611Z,32
2023-06-10T22:19:52.329Z,28
2023-06-10T22:22:23.189Z,24
2023-06-10T22:24:56.410Z,24
2023-06-10T22:27:32.072Z,24
2023-06-10T22:30:02.893Z,24
2023-06-10T22:32:33.572Z,28
2023-06-10T22:35:04.282Z,24
2023-06-10T22:37:35.167Z,24
2023-06-10T22:40:05.795Z,24
2023-06-10T22:42:36.560Z,23
2023-06-10T22:45:07.655Z,24
2023-06-10T22:47:38.565Z,20
2023-06-10T22:50:09.246Z,24
2023-06-10T22:52:40.551Z,20
2023-06-10T22:55:11.444Z,22
2023-06-10T22:57:42.808Z,20
2023-06-10T23:00:13.746Z,21
2023-06-10T23:02:44.575Z,24
2023-06-10T23:05:15.606Z,24
2023-06-10T23:07:46.550Z,24
2023-06-10T23:10:20.540Z,20
2023-06-10T23:12:52.142Z,24
2023-06-10T23:15:21.150Z,24
2023-06-10T23:17:51.556Z,24
2023-06-10T23:20:22.220Z,20
2023-06-10T23:22:52.962Z,20
2023-06-10T23:25:23.805Z,20
2023-06-10T23:27:54.668Z,20
2023-06-10T23:30:25.635Z,20
2023-06-10T23:32:56.326Z,20
2023-06-10T23:35:26.869Z,24
2023-06-10T23:37:57.676Z,24
2023-06-10T23:40:28.778Z,21
2023-06-10T23:42:59.551Z,21
2023-06-10T23:45:30.727Z,20
2023-06-10T23:48:01.544Z,16
2023-06-10T23:50:32.096Z,17
2023-06-10T23:53:02.913Z,20
2023-06-10T23:55:33.480Z,20
2023-06-10T23:58:04.254Z,20
